Flight Track Log - Related Links

Times and Time Zones

All times are in EDT time to prevent confusion due to time zone crossing. See the N929SR flight status page for this flight to view local times or setup timezone preferences in your user account.

Time Position Orientation Groundspeed Altitude Reporting Facility
EDT Latitude Longitude Course Direction KTS MPH feet Rate Location/Type
Fri 10:26:49 PM 42.2239 -83.5469 228° Southwest 172 198 1,700  Level Cleveland Center
Fri 10:27:33 PM 42.1981 -83.5850 228° Southwest 175 201 3,000 1,808 Climbing Cleveland Center
Fri 10:28:02 PM 42.2033 -83.6161 283° West 200 230 3,900 2,100 Climbing Cleveland Center
Fri 10:28:33 PM 42.2150 -83.6503 295° West 224 258 5,100 2,667 Climbing Cleveland Center
Fri 10:28:56 PM 42.2286 -83.6819 300° West 236 272 6,300 3,300 Climbing Cleveland Center
Fri 10:29:33 PM 42.2461 -83.7275 297° West 234 269 8,400 3,278 Climbing Cleveland Center
Fri 10:30:33 PM 42.2792 -83.8136 297° West 240 276 11,600 3,000 Climbing Cleveland Center
Fri 10:31:33 PM 42.3122 -83.8994 298° West 264 304 14,400 3,200 Climbing Cleveland Center
Fri 10:32:33 PM 42.3528 -84.0083 297° West 297 342 18,000 3,550 Climbing Cleveland Center
Fri 10:33:33 PM 42.3956 -84.1175 298° West 322 371 21,500 3,450 Climbing Cleveland Center
Fri 10:34:33 PM 42.4294 -84.2319 292° West 332 382 24,900 3,050 Climbing Cleveland Center
Fri 10:35:33 PM 42.4317 -84.3586 271° West 332 382 27,600 2,550 Climbing Cleveland Center
Fri 10:36:33 PM 42.4333 -84.4911 271° West 338 389 30,000 2,140 Climbing Cleveland Center
Fri 10:38:24 PM 42.4422 -84.7461 273° West 372 428 33,700 1,500 Climbing Chicago Center
Fri 10:39:25 PM 42.4444 -84.8922 271° West 382 440 34,300 738 Climbing Chicago Center
Fri 10:40:26 PM 42.4472 -85.0358 272° West 383 441 35,200 927 Climbing Chicago Center
Fri 10:41:28 PM 42.4511 -85.1758 272° West 378 435 36,200 1,171 Climbing Chicago Center
Fri 10:42:29 PM 42.4553 -85.3475 272° West 380 437 37,600 1,426 Climbing Chicago Center
Fri 10:43:30 PM 42.4569 -85.4892 271° West 378 435 39,100 1,180 Climbing Chicago Center
Fri 10:44:31 PM 42.4586 -85.6228 271° West 361 415 40,000 439 Climbing Chicago Center
Fri 10:45:33 PM 42.4617 -85.7592 272° West 362 417 40,000  Level Chicago Center
Fri 10:46:34 PM 42.4631 -85.9019 271° West 375 432 40,000  Level Chicago Center
Fri 10:47:35 PM 42.4656 -86.0492 271° West 387 445 40,000  Level Chicago Center
Fri 10:48:36 PM 42.4514 -86.1947 263° West 387 445 40,000  Level Chicago Center
Fri 10:49:37 PM 42.4292 -86.3394 258° West 392 451 40,000  Level Chicago Center
Fri 10:50:38 PM 42.4081 -86.4781 258° West 380 437 40,000  Level Chicago Center
Fri 10:51:40 PM 42.3856 -86.6158 258° West 376 433 40,000  Level Chicago Center
Fri 10:52:41 PM 42.3639 -86.7647 259° West 373 429 40,000  Level Chicago Center
Fri 10:53:42 PM 42.3419 -86.9008 258° West 374 430 40,000  Level Chicago Center
Fri 10:54:43 PM 42.3200 -87.0389 258° West 378 435 40,000  Level Chicago Center
Fri 10:55:44 PM 42.2958 -87.1731 256° West 372 428 40,000  Level Chicago Center
Fri 10:56:45 PM 42.2736 -87.3119 258° West 379 436 40,000  Level Chicago Center
Fri 10:57:46 PM 42.2467 -87.4800 258° West 385 443 40,000  Level Chicago Center
Fri 10:58:47 PM 42.2228 -87.6186 257° West 384 442 40,000  Level Chicago Center
Fri 10:59:49 PM 42.1994 -87.7564 257° West 383 441 40,000  Level Chicago Center
Fri 11:00:50 PM 42.1756 -87.8972 257° West 388 447 40,000  Level Chicago Center
Fri 11:01:51 PM 42.1514 -88.0353 257° West 384 442 40,000  Level Chicago Center
Fri 11:02:52 PM 42.1281 -88.1747 257° West 385 443 40,000  Level Chicago Center
Fri 11:03:53 PM 42.1042 -88.3128 257° West 383 441 40,000  Level Chicago Center
Fri 11:04:54 PM 42.0797 -88.4511 257° West 382 440 40,000  Level Chicago Center
Fri 11:05:55 PM 42.0553 -88.5911 257° West 387 445 40,000  Level Chicago Center
Fri 11:06:56 PM 42.0253 -88.7594 257° West 389 448 40,000  Level Chicago Center
Fri 11:07:57 PM 41.9994 -88.9003 256° West 390 449 40,000  Level Chicago Center
Fri 11:08:58 PM 41.9747 -89.0406 257° West 390 449 40,000  Level Chicago Center
Fri 11:09:59 PM 41.9486 -89.1800 256° West 389 448 40,000  Level Chicago Center
Fri 11:11:00 PM 41.9239 -89.3228 257° West 394 453 40,000  Level Chicago Center
Fri 11:12:01 PM 41.8978 -89.4633 256° West 390 449 40,000  Level Chicago Center
Fri 11:13:02 PM 41.8714 -89.6014 256° West 387 445 40,000  Level Chicago Center
Fri 11:14:03 PM 41.8447 -89.7411 256° West 389 448 40,000  Level Chicago Center
Fri 11:15:04 PM 41.8183 -89.8825 256° West 391 450 40,000  Level Chicago Center
Fri 11:16:05 PM 41.7914 -90.0308 256° West 389 448 40,000  Level Chicago Center
Fri 11:17:06 PM 41.7644 -90.1703 256° West 389 448 40,000  Level Chicago Center
Fri 11:18:07 PM 41.7358 -90.3144 255° West 398 458 40,000  Level Chicago Center
Fri 11:19:08 PM 41.7092 -90.4550 256° West 394 453 40,000  Level Chicago Center
Fri 11:20:09 PM 41.6761 -90.6208 255° West 388 447 40,000  Level Chicago Center
Fri 11:21:10 PM 41.6531 -90.7403 256° West 391 450 40,000  Level Chicago Center
Fri 11:22:11 PM 41.6247 -90.8808 255° West 393 452 40,000  Level Chicago Center
Fri 11:23:12 PM 41.5919 -91.0492 255° West 391 450 40,000  Level Chicago Center
Fri 11:24:13 PM 41.5617 -91.1917 254° West 397 457 40,000  Level Chicago Center
Fri 11:25:14 PM 41.5331 -91.3336 255° West 396 456 40,000  Level Chicago Center
Fri 11:26:15 PM 41.5053 -91.4758 255° West 396 456 40,000  Level Chicago Center
Fri 11:27:16 PM 41.4756 -91.6183 254° West 399 459 40,000  Level Chicago Center
Fri 11:28:17 PM 41.4461 -91.7606 255° West 400 460 40,000  Level Chicago Center
Fri 11:29:18 PM 41.4167 -91.9039 255° West 402 463 40,000  Level Chicago Center
Fri 11:30:19 PM 41.3858 -92.0472 254° West 405 466 40,000  Level Chicago Center
Fri 11:31:19 PM 41.3564 -92.1886 255° West 400 460 40,000  Level Chicago Center
Fri 11:32:20 PM 41.3250 -92.3286 253° West 399 459 40,000  Level Chicago Center
Fri 11:33:21 PM 41.2894 -92.4967 254° West 403 464 40,000  Level Chicago Center
Fri 11:34:22 PM 41.2592 -92.6372 254° West 402 463 40,000  Level Chicago Center
Fri 11:35:05 PM 41.2406 -92.7244 254° West 402 463 40,000  Level Minneapolis Center
Fri 11:36:06 PM 41.2103 -92.8631 254° West 399 459 40,000  Level Minneapolis Center
Fri 11:37:07 PM 41.1728 -93.0283 253° West 396 456 40,000  Level Minneapolis Center
Fri 11:38:08 PM 41.1425 -93.1672 254° West 395 455 40,000  Level Minneapolis Center
Fri 11:39:09 PM 41.1114 -93.3025 253° West 391 450 40,000  Level Minneapolis Center
Fri 11:40:10 PM 41.0814 -93.4406 254° West 392 451 40,000  Level Minneapolis Center
Fri 11:41:11 PM 41.0506 -93.5775 253° West 392 451 40,000  Level Minneapolis Center
Fri 11:42:12 PM 41.0189 -93.7153 253° West 393 452 40,000  Level Minneapolis Center
Fri 11:43:13 PM 40.9878 -93.8517 253° West 392 451 40,000  Level Minneapolis Center
Fri 11:44:14 PM 40.9558 -93.9889 253° West 393 452 40,000  Level Minneapolis Center
Fri 11:45:15 PM 40.9200 -94.1528 254° West 391 450 40,000  Level Minneapolis Center
Fri 11:46:16 PM 40.8867 -94.2897 252° West 392 451 40,000  Level Minneapolis Center
Fri 11:47:17 PM 40.8503 -94.4300 251° West 398 458 40,000  Level Minneapolis Center
Fri 11:48:18 PM 40.8172 -94.5653 252° West 398 458 40,000  Level Minneapolis Center
Fri 11:49:19 PM 40.7903 -94.6972 255° West 388 447 40,000  Level Minneapolis Center
Fri 11:50:20 PM 40.7567 -94.8364 252° West 390 449 40,000  Level Minneapolis Center
Fri 11:51:21 PM 40.7222 -94.9736 252° West 394 453 40,000  Level Minneapolis Center
Fri 11:52:22 PM 40.6908 -95.1097 253° West 391 450 40,000  Level Minneapolis Center
Fri 11:53:23 PM 40.6575 -95.2464 252° West 390 449 40,000  Level Minneapolis Center
Fri 11:54:24 PM 40.6233 -95.3844 252° West 394 453 40,000  Level Minneapolis Center
Fri 11:55:24 PM 40.5894 -95.5219 252° West 395 455 40,000  Level Minneapolis Center
Fri 11:56:25 PM 40.5558 -95.6594 252° West 394 453 40,000  Level Minneapolis Center
Fri 11:57:26 PM 40.5225 -95.7972 252° West 394 453 40,000  Level Minneapolis Center
Fri 11:58:27 PM 40.4881 -95.9372 252° West 398 458 40,000  Level Minneapolis Center
Fri 11:59:28 PM 40.4528 -96.0728 251° West 395 455 40,000  Level Minneapolis Center
Sat 12:00:28 AM 40.4103 -96.2439 252° West 402 463 40,000  Level Minneapolis Center
Sat 12:01:29 AM 40.3725 -96.3858 251° West 406 467 40,000  Level Minneapolis Center
Sat 12:02:30 AM 40.3361 -96.5283 252° West 409 471 40,000  Level Minneapolis Center
Sat 12:03:31 AM 40.2992 -96.6719 251° West 411 473 40,000  Level Minneapolis Center
Sat 12:04:31 AM 40.2617 -96.8156 251° West 413 475 40,000  Level Minneapolis Center
Sat 12:05:32 AM 40.2256 -96.9561 251° West 412 474 40,000  Level Minneapolis Center
Sat 12:06:33 AM 40.1881 -97.0997 251° West 414 476 40,000  Level Minneapolis Center
Sat 12:07:34 AM 40.1511 -97.2431 251° West 416 479 40,000  Level Minneapolis Center
Sat 12:08:35 AM 40.1131 -97.3850 251° West 410 472 40,000  Level Minneapolis Center
Sat 12:09:35 AM 40.0756 -97.5228 250° West 406 467 40,000  Level Minneapolis Center
Sat 12:10:36 AM 40.0386 -97.6606 251° West 402 463 40,000  Level Minneapolis Center
Sat 12:11:37 AM 40.0019 -97.7992 251° West 402 463 40,000  Level Minneapolis Center
Sat 12:12:37 AM 39.9653 -97.9353 251° West 399 459 40,000  Level Minneapolis Center
Sat 12:13:38 AM 39.9267 -98.0708 250° West 399 459 40,000  Level Minneapolis Center
Sat 12:14:39 AM 39.8903 -98.2083 251° West 400 460 40,000  Level Minneapolis Center
Sat 12:15:39 AM 39.8528 -98.3450 250° West 400 460 40,000  Level Minneapolis Center
Sat 12:16:40 AM 39.8144 -98.4786 250° West 396 456 40,000  Level Minneapolis Center
Sat 12:17:41 AM 39.7761 -98.6147 250° West 397 457 40,000  Level Minneapolis Center
Sat 12:18:41 AM 39.7392 -98.7539 251° West 403 464 40,000  Level Minneapolis Center
Sat 12:19:42 AM 39.7006 -98.8906 250° West 403 464 40,000  Level Minneapolis Center
Sat 12:20:23 AM 39.6686 -98.9989 249° West 400 460 40,000  Level Denver Center
Sat 12:21:24 AM 39.6300 -99.1336 250° West 398 458 40,000  Level Denver Center
Sat 12:22:25 AM 39.5914 -99.2708 250° West 402 463 40,000  Level Denver Center
Sat 12:23:26 AM 39.5528 -99.4033 249° West 396 456 40,000  Level Denver Center
Sat 12:24:27 AM 39.5150 -99.5367 250° West 394 453 40,000  Level Denver Center
Sat 12:25:28 AM 39.4792 -99.6617 250° West 393 452 40,000  Level Denver Center
Sat 12:26:29 AM 39.4361 -99.8094 249° West 392 451 40,000  Level Denver Center
Sat 12:27:30 AM 39.3992 -99.9347 249° West 390 449 40,000  Level Denver Center
Sat 12:28:32 AM 39.3619 -100.0578 249° West 386 444 40,000  Level Denver Center
Sat 12:29:33 AM 39.3189 -100.2061 249° West 391 450 40,000  Level Denver Center
Sat 12:30:34 AM 39.2814 -100.3314 249° West 391 450 40,000  Level Denver Center
Sat 12:31:35 AM 39.2436 -100.4578 249° West 393 452 40,000  Level Denver Center
Sat 12:32:36 AM 39.2000 -100.6033 249° West 391 450 40,000  Level Denver Center
Sat 12:33:37 AM 39.1614 -100.7289 248° West 392 451 40,000  Level Denver Center
Sat 12:34:37 AM 39.1169 -100.8769 249° West 396 456 40,000  Level Denver Center
Sat 12:35:38 AM 39.0786 -101.0022 249° West 394 453 40,000  Level Denver Center
Sat 12:36:39 AM 39.0403 -101.1303 249° West 400 460 40,000  Level Denver Center
Sat 12:37:40 AM 38.9953 -101.2725 248° West 396 456 40,000  Level Denver Center
Sat 12:38:41 AM 38.9569 -101.3975 249° West 394 453 40,000  Level Denver Center
Sat 12:39:42 AM 38.9172 -101.5250 248° West 399 459 40,000  Level Denver Center
Sat 12:40:43 AM 38.8714 -101.6708 248° West 397 457 40,000  Level Denver Center
Sat 12:41:44 AM 38.8325 -101.7967 248° West 397 457 40,000  Level Denver Center
Sat 12:42:45 AM 38.7858 -101.9419 248° West 396 456 40,000  Level Denver Center
Sat 12:43:45 AM 38.7469 -102.0650 248° West 392 451 40,000  Level Denver Center
Sat 12:44:46 AM 38.7083 -102.1883 248° West 391 450 40,000  Level Denver Center
Sat 12:45:47 AM 38.6619 -102.3317 248° West 392 451 40,000  Level Denver Center
Sat 12:46:48 AM 38.6228 -102.4561 248° West 394 453 40,000  Level Denver Center
Sat 12:47:49 AM 38.5822 -102.5803 247° West 396 456 40,000  Level Denver Center
Sat 12:48:49 AM 38.5364 -102.7203 247° West 385 443 40,000  Level Denver Center
Sat 12:49:50 AM 38.4983 -102.8389 248° West 378 435 40,000  Level Denver Center
Sat 12:50:51 AM 38.4586 -102.9556 247° West 376 433 40,000  Level Denver Center
Sat 12:51:52 AM 38.4156 -103.0925 248° West 373 429 40,000  Level Denver Center
Sat 12:52:52 AM 38.3761 -103.2106 247° West 377 434 40,000  Level Denver Center
Sat 12:53:53 AM 38.3369 -103.3269 247° West 373 429 40,000  Level Denver Center
Sat 12:54:54 AM 38.2908 -103.4669 247° West 377 434 40,000  Level Denver Center
Sat 12:55:54 AM 38.2503 -103.5856 247° West 382 440 40,000  Level Denver Center
Sat 12:56:55 AM 38.2108 -103.7044 247° West 382 440 40,000  Level Denver Center
Sat 12:57:56 AM 38.1642 -103.8431 247° West 382 440 40,000  Level Denver Center
Sat 12:58:56 AM 38.1231 -103.9633 247° West 386 444 40,000  Level Denver Center
Sat 12:59:57 AM 38.0822 -104.0833 247° West 388 447 40,000  Level Denver Center
Sat 01:00:58 AM 38.0350 -104.2239 247° West 390 449 40,000  Level Denver Center
Sat 01:01:58 AM 37.9933 -104.3442 246° West 391 450 40,000  Level Denver Center
Sat 01:02:59 AM 37.9519 -104.4644 246° West 390 449 40,000  Level Denver Center
Sat 01:04:00 AM 37.9031 -104.6053 246° West 392 451 40,000  Level Denver Center
Sat 01:05:00 AM 37.8606 -104.7256 246° West 393 452 40,000  Level Denver Center
Sat 01:06:01 AM 37.8189 -104.8472 247° West 394 453 40,000  Level Denver Center
Sat 01:07:01 AM 37.7689 -104.9889 246° West 396 456 40,000  Level Denver Center
Sat 01:08:02 AM 37.7258 -105.1100 246° West 396 456 40,000  Level Denver Center
Sat 01:09:03 AM 37.6836 -105.2283 246° West 389 448 40,000  Level Denver Center
Sat 01:10:03 AM 37.6339 -105.3700 246° West 394 453 40,000  Level Denver Center
Sat 01:11:04 AM 37.5914 -105.4906 246° West 393 452 40,000  Level Denver Center
Sat 01:12:04 AM 37.5419 -105.6250 245° Southwest 394 453 40,000  Level Denver Center
Sat 01:13:05 AM 37.4989 -105.7456 246° West 395 455 40,000  Level Denver Center
Sat 01:14:05 AM 37.4556 -105.8667 246° West 396 456 40,000  Level Denver Center
Sat 01:15:06 AM 37.4106 -105.9881 245° Southwest 399 459 40,000  Level Denver Center
Sat 01:16:06 AM 37.3589 -106.1297 245° Southwest 400 460 40,000  Level Denver Center
Sat 01:17:07 AM 37.3147 -106.2533 246° West 404 465 40,000  Level Denver Center
Sat 01:18:07 AM 37.2678 -106.3742 244° Southwest 404 465 40,000  Level Denver Center
Sat 01:19:08 AM 37.2161 -106.5192 246° West 406 467 40,000  Level Denver Center
Sat 01:20:08 AM 37.1708 -106.6417 245° Southwest 407 468 40,000  Level Denver Center
Sat 01:21:09 AM 37.1233 -106.7658 244° Southwest 411 473 40,000  Level Denver Center
Sat 01:22:09 AM 37.0703 -106.9119 246° West 413 475 40,000  Level Denver Center
Sat 01:23:10 AM 37.0239 -107.0367 245° Southwest 414 476 40,000  Level Denver Center
Sat 01:24:10 AM 36.9775 -107.1617 245° Southwest 413 475 40,000  Level Denver Center
Sat 01:25:11 AM 36.9211 -107.3069 244° Southwest 416 479 40,000  Level Denver Center
Sat 01:26:11 AM 36.8736 -107.4322 245° Southwest 416 479 40,000  Level Denver Center
Sat 01:27:11 AM 36.8253 -107.5575 244° Southwest 417 480 40,000  Level Denver Center
Sat 01:28:12 AM 36.7783 -107.6833 245° Southwest 419 482 40,000  Level Denver Center
Sat 01:29:12 AM 36.7217 -107.8300 244° Southwest 420 483 40,000  Level Denver Center
Sat 01:30:13 AM 36.6739 -107.9556 245° Southwest 420 483 40,000  Level Denver Center
Sat 01:31:13 AM 36.6244 -108.0800 244° Southwest 419 482 40,000  Level Denver Center
Sat 01:32:14 AM 36.5681 -108.2269 244° Southwest 422 486 40,000  Level Denver Center
Sat 01:33:14 AM 36.5186 -108.3517 244° Southwest 422 486 40,000  Level Denver Center
Sat 01:34:14 AM 36.4692 -108.4792 244° Southwest 426 490 40,000  Level Denver Center
Sat 01:35:15 AM 36.4114 -108.6264 244° Southwest 426 490 40,000  Level Denver Center
Sat 01:36:15 AM 36.3606 -108.7533 244° Southwest 429 494 40,000  Level Denver Center
Sat 01:37:16 AM 36.3111 -108.8794 244° Southwest 430 495 40,000  Level Denver Center
Sat 01:38:16 AM 36.2522 -109.0261 244° Southwest 431 496 40,000  Level Denver Center
Sat 01:39:16 AM 36.2014 -109.1517 243° Southwest 431 496 40,000  Level Denver Center
Sat 01:40:17 AM 36.1503 -109.2789 244° Southwest 433 498 40,000  Level Denver Center
Sat 01:40:49 AM 36.1161 -109.3625 243° Southwest 432 497 40,000  Level Albuquerque Center
Sat 01:41:17 AM 36.0900 -109.4261 243° Southwest 432 497 40,000  Level Denver Center
Sat 01:42:18 AM 36.0392 -109.5511 243° Southwest 429 494 40,000  Level Denver Center
Sat 01:43:18 AM 35.9764 -109.6694 237° Southwest 429 494 40,000  Level Denver Center
Sat 01:44:19 AM 35.8933 -109.8011 232° Southwest 436 502 40,000  Level Denver Center
Sat 01:44:52 AM 35.8575 -109.8578 232° Southwest 442 509 40,000  Level Albuquerque Center
Sat 01:45:52 AM 35.7828 -109.9733 231° Southwest 443 510 40,000  Level Albuquerque Center
Sat 01:46:53 AM 35.6983 -110.1081 232° Southwest 449 517 40,000  Level Albuquerque Center
Sat 01:47:53 AM 35.6233 -110.2206 231° Southwest 447 514 40,000 -347 Level Albuquerque Center
Sat 01:48:54 AM 35.5364 -110.3197 223° Southwest 445 512 39,300 -1,388 Descending Albuquerque Center
Sat 01:49:54 AM 35.4353 -110.4397 224° Southwest 448 516 37,200 -1,983 Descending Albuquerque Center
Sat 01:50:55 AM 35.3483 -110.5469 225° Southwest 460 529 35,300 -1,820 Descending Albuquerque Center
Sat 01:51:56 AM 35.2647 -110.6486 225° Southwest 449 517 33,500 -1,983 Descending Albuquerque Center
Sat 01:52:56 AM 35.1667 -110.7678 225° Southwest 443 510 31,300 -1,983 Descending Albuquerque Center
Sat 01:53:57 AM 35.0808 -110.8686 224° Southwest 445 512 29,500 -1,785 Descending Albuquerque Center
Sat 01:54:57 AM 34.9972 -110.9703 225° Southwest 455 524 27,700 -1,884 Descending Albuquerque Center
Sat 01:55:58 AM 34.9089 -111.0831 226° Southwest 461 531 25,700 -1,983 Descending Albuquerque Center
Sat 01:56:58 AM 34.8156 -111.1958 225° Southwest 471 542 23,700 -1,934 Descending Albuquerque Center
Sat 01:57:59 AM 34.7269 -111.3014 224° Southwest 455 524 21,800 -1,869 Descending Albuquerque Center
Sat 01:59:00 AM 34.6397 -111.4058 225° Southwest 446 513 19,900 -1,785 Descending Albuquerque Center
Sat 02:00:00 AM 34.5569 -111.5025 224° Southwest 425 489 18,200 -1,785 Descending Albuquerque Center
Sat 02:01:01 AM 34.4719 -111.6022 224° Southwest 364 419 16,300 -1,686 Descending Albuquerque Center
Sat 02:02:01 AM 34.4006 -111.6869 224° Southwest 359 413 14,800 -1,488 Descending Albuquerque Center
Sat 02:03:02 AM 34.3281 -111.7717 224° Southwest 363 418 13,300 -1,438 Descending Albuquerque Center
Sat 02:04:02 AM 34.2608 -111.8497 224° Southwest 347 399 11,900 -1,190 Descending Albuquerque Center
Sat 02:05:03 AM 34.2033 -111.9153 223° Southwest 293 337 10,900 -443 Descending Albuquerque Center
Sat 02:06:04 AM 34.1267 -111.9264 187° South 279 321 11,000 -595 Climbing Albuquerque Center
Sat 02:07:04 AM 34.0472 -111.9314 183° South 289 333 9,700 -1,438 Descending Albuquerque Center
Sat 02:08:05 AM 33.9678 -111.9350 182° South 290 334 8,100 -1,240 Descending Albuquerque Center
Sat 02:09:05 AM 33.9017 -111.9281 175° South 242 278 7,200 -992 Descending Albuquerque Center
Sat 02:10:06 AM 33.8467 -111.9150 169° South 203 234 6,100 -645 Descending Albuquerque Center
Sat 02:11:06 AM 33.8000 -111.9017 167° South 192 221 5,900 -200 Descending Albuquerque Center

Login

Don't have an account? Register now (free) for customized features, flight alerts, and more!